Jupiter, FL (33458)

5:02 PM EST on November 24, 2014 (GMT -0500)
JUPITER RIVER | Change Station
CLOSE
Current Station
Personal Weather Station
Location: Jupiter, FL
Elevation: 33 ft
Nearby Weather Stations

Elev 33 ft 26.93 °N, 80.11 °W | Updated 1 second ago

Mostly Cloudy
Mostly Cloudy
82.2 °F
Feels Like 91 °F
N
1.0
Wind Variable Wind from South
Gusts 3.0 mph

Today
High -- | Low -- °F
--% Chance of Precip.
Yesterday
High -- | Low -- °F
Precip. -- in
6:47 AM 5:27 PM
Waxing Crescent, 7% visible
Pressure 29.96 in
Visibility 10.0 miles
Clouds Scattered Clouds 3400 ft
Mostly Cloudy 25000 ft
Heat Index 91 °F
Dew Point 77 °F
Humidity 85%
Rainfall 0.01 in
Snow Depth Not available.
UV 0 out of 12
Pollen 4.00 out of 12
Air Quality Not available.
Flu Activity Not available.
METAR KPBI 242153Z 16008KT 10SM SCT034 BKN250 28/24 A2996 RMK AO2 SLP145 T02830239

More Conditions Fewer Conditions

Pressure 29.96 in
Visibility 10.0 miles
Clouds Scattered Clouds 3400 ft
Mostly Cloudy 25000 ft
Heat Index 91 °F
Dew Point 77 °F
Humidity 85%
Rainfall 0.01 in
Snow Depth Not available.
UV 0 out of 12
Pollen 4.00 out of 12
Air Quality Not available.
Flu Activity Not available.
METAR KPBI 242153Z 16008KT 10SM SCT034 BKN250 28/24 A2996 RMK AO2 SLP145 T02830239

More Conditions Fewer Conditions

10-Day Weather Forecast

Almanac

Astronomy

Nov. 24, 2014 Rise Set
Actual Time
Civil Twilight
Nautical Twilight
Astronomical Twilight
Moon
Length of Visible Light
Length of Day
Tomorrow will be .
, % of the Moon is Illuminated

Today's Extremes

State Highs State Lows

Community

WunderPhotos

Upload Photos

1,773,423 photos uploaded!

WunderBlogs® & News

Nearby

Air Quality

  Air Quality AQ Index Pollutant
Not available.

Snow Depth

Station Depth Elevation

Earthquake Activity

City Distance Mag. Time & Date
Minimum magnitude displayed is 2.5.

Coastal Water Temperatures

Place Temperature

Nearby Weather Stations